Terminal Aerodrome Forecast
Issued by NWS Cleveland, OH

Home | Current Version | Previous Version | Text Only | Print | Product List | Glossary On
Versions: 1 2 3 4 5 6 7 8 9 10 11 12 13 14 15 16 17 18
441
FTUS41 KCLE 201258 AAA
TAFERI
TAF AMD
KERI 201258Z 2013/2112 28008KT 5SM BR OVC010
     FM201400 30006KT P6SM SCT015 BKN030
     FM201600 30008KT P6SM BKN035
     FM210300 06005KT P6SM SCT100=

USA.gov is the U.S. government's official web portal to all federal, state and local government web resources and services.